Dilidjan, Armenia

5:00 PM AMT on September 18, 2014 (GMT +0400)
Zvartnots | Change Station
CLOSE
Current Station
Airport
Location: Zvartnots,
Elevation: 2838 ft
Nearby Weather Stations

Elev 2838 ft 40.15 °N, 44.40 °E | Updated 30 minutes ago

Mostly Cloudy
Mostly Cloudy
82 °F
Feels Like 82 °F
N
0
Wind Variable Wind from North

Today
High -- | Low -- °F
--% Chance of Precip.
Yesterday
High -- | Low -- °F
Precip. -- in
6:43 AM 7:05 PM
Waning Crescent, 27% visible
Pressure 29.89 in
Visibility 6.2 miles
Clouds Scattered Clouds 4000 ft
Mostly Cloudy 10000 ft
Dew Point 48 °F
Humidity 30%
Rainfall 0.00 in
Snow Depth Not available.
UV 1 out of 12
Pollen Not available.
Air Quality Not available.
Flu Activity Not available.
METAR UDYZ 181230Z 00000MPS 9999 SCT040CB BKN100 28/09 Q1012 R09/000070 NOSIG

More Conditions Fewer Conditions

Pressure 29.89 in
Visibility 6.2 miles
Clouds Scattered Clouds 4000 ft
Mostly Cloudy 10000 ft
Dew Point 48 °F
Humidity 30%
Rainfall 0.00 in
Snow Depth Not available.
UV 1 out of 12
Pollen Not available.
Air Quality Not available.
Flu Activity Not available.
METAR UDYZ 181230Z 00000MPS 9999 SCT040CB BKN100 28/09 Q1012 R09/000070 NOSIG

More Conditions Fewer Conditions

10-Day Weather Forecast

Almanac

Astronomy

Sep. 18, 2014 Rise Set
Actual Time 6:43 AM AMT 7:05 PM AMT
Civil Twilight 6:16 AM AMT 7:32 PM AMT
Nautical Twilight 5:44 AM AMT 8:04 PM AMT
Astronomical Twilight 5:11 AM AMT 8:37 PM AMT
Moon 1:14 AM AMT 3:42 PM AMT
Length of Visible Light 13h 16m
Length of Day
12h 21m
Tomorrow will be 2m 41s shorter.
Waning Crescent, 27% of the Moon is Illuminated
Today
Waning Crescent
Sep 24
New
Oct 1
First Quarter
Oct 8
Full
Oct 15
Last Quarter

Yesterday's Extremes

Country Highs Country Lows

Community

WunderPhotos

Upload Photos

1,754,334 photos uploaded!

Nearby

Snow Depth

Not available.

Earthquake Activity

City Distance Mag. Time & Date
No recent earthquake activity has been reported nearby.
Minimum magnitude displayed is 2.5.

Coastal Water Temperatures

Place Temperature
No Stations Reporting

Nearby Weather Stations